createdAt,value
2023-10-17T04:39:12.817Z,3.32
2023-10-17T04:42:48.488Z,3.32
2023-10-17T04:46:02.898Z,2.62
2023-10-17T04:49:20.574Z,2.61
2023-10-17T04:52:42.415Z,2.58
2023-10-17T04:56:15.282Z,2.80
2023-10-17T04:59:53.060Z,2.68
2023-10-17T05:03:15.518Z,2.65
2023-10-17T05:06:43.822Z,2.56
2023-10-17T05:10:29.804Z,2.63
2023-10-17T05:14:03.152Z,2.49
2023-10-17T05:17:34.877Z,2.41
2023-10-17T05:21:06.618Z,2.53
2023-10-17T05:24:38.910Z,2.33
2023-10-17T05:28:24.614Z,2.67
2023-10-17T05:32:08.833Z,2.35
2023-10-17T05:39:48.571Z,2.37
2023-10-17T05:43:20.867Z,2.44
2023-10-17T05:46:58.702Z,2.63
2023-10-17T05:50:53.274Z,2.73
2023-10-17T05:58:21.161Z,3.25
2023-10-17T06:01:53.036Z,2.87
2023-10-17T06:05:33.546Z,3.09
2023-10-17T06:09:11.980Z,3.05
2023-10-17T06:12:44.014Z,3.22
2023-10-17T06:16:17.056Z,3.59
2023-10-17T06:20:07.783Z,3.79
2023-10-17T06:24:00.501Z,3.73
2023-10-17T06:27:37.352Z,4.12
2023-10-17T06:31:11.928Z,4.50
2023-10-17T06:34:32.943Z,4.64
2023-10-17T06:38:07.187Z,4.85
2023-10-17T06:45:33.143Z,5.43
2023-10-17T06:48:56.690Z,5.58
2023-10-17T06:52:34.170Z,5.98
2023-10-17T06:56:04.346Z,6.50
2023-10-17T06:59:40.040Z,6.66
2023-10-17T07:03:07.872Z,6.78
2023-10-17T07:07:06.771Z,7.11
2023-10-17T07:10:44.949Z,7.05
2023-10-17T07:14:28.581Z,7.16
2023-10-17T07:18:20.662Z,7.12
2023-10-17T07:22:22.932Z,7.28
2023-10-17T07:25:52.379Z,7.42
2023-10-17T07:29:17.711Z,7.51
2023-10-17T07:32:55.744Z,7.78
2023-10-17T07:36:15.270Z,7.94
2023-10-17T07:39:37.953Z,8.03
2023-10-17T07:42:53.919Z,7.76
2023-10-17T07:46:09.411Z,7.90
2023-10-17T07:53:07.036Z,7.98
2023-10-17T07:56:29.984Z,8.03
2023-10-17T07:59:56.233Z,8.06
2023-10-17T08:03:31.040Z,8.17
2023-10-17T08:06:53.461Z,8.29
2023-10-17T08:10:13.346Z,8.70
2023-10-17T08:13:35.432Z,8.75
2023-10-17T08:16:57.692Z,8.86
2023-10-17T08:20:32.865Z,9.25
2023-10-17T08:28:07.393Z,9.22
2023-10-17T08:31:44.715Z,9.29
2023-10-17T08:35:00.810Z,9.55
2023-10-17T08:38:16.249Z,9.32
2023-10-17T08:41:47.522Z,9.71
2023-10-17T08:48:49.341Z,9.61
2023-10-17T08:55:58.294Z,9.88
2023-10-17T08:59:15.506Z,10.02
2023-10-17T09:02:35.996Z,10.09
2023-10-17T09:06:17.190Z,10.43
2023-10-17T09:09:36.923Z,10.23
2023-10-17T09:13:18.685Z,10.52
2023-10-17T09:17:06.751Z,10.46
2023-10-17T09:20:38.829Z,10.49
2023-10-17T09:23:53.451Z,10.73
2023-10-17T09:27:27.922Z,11.01
2023-10-17T09:30:42.401Z,10.70
2023-10-17T09:37:40.033Z,11.20
2023-10-17T09:41:23.796Z,11.42
2023-10-17T09:44:41.275Z,11.29
2023-10-17T09:55:49.301Z,11.83
2023-10-17T09:59:08.724Z,11.55
2023-10-17T10:02:33.322Z,11.74
2023-10-17T10:05:56.405Z,11.77
2023-10-17T10:09:32.563Z,11.95
2023-10-17T10:13:13.194Z,11.87
2023-10-17T10:17:07.143Z,11.84
2023-10-17T10:20:21.907Z,11.85
2023-10-17T10:23:48.869Z,11.91
2023-10-17T10:27:31.957Z,12.46
2023-10-17T10:30:52.719Z,12.54
2023-10-17T10:34:15.689Z,12.28
2023-10-17T10:37:57.573Z,12.45
2023-10-17T10:41:19.138Z,12.62
2023-10-17T10:44:42.123Z,12.63
2023-10-17T10:48:00.729Z,12.38
2023-10-17T10:51:41.544Z,12.63
2023-10-17T10:55:06.024Z,12.27
2023-10-17T10:58:30.410Z,12.56
2023-10-17T11:01:52.136Z,12.26
2023-10-17T11:05:57.000Z,12.91
2023-10-17T11:09:34.434Z,13.03
2023-10-17T11:12:59.572Z,13.24
2023-10-17T11:16:15.766Z,13.01
2023-10-17T11:19:53.599Z,13.09
2023-10-17T11:23:31.393Z,13.00
2023-10-17T11:27:09.041Z,13.37
2023-10-17T11:30:34.177Z,14.25
2023-10-17T11:33:54.608Z,14.88
2023-10-17T11:37:30.159Z,15.11
2023-10-17T11:40:49.611Z,14.94
2023-10-17T11:44:18.094Z,14.75
2023-10-17T11:47:39.985Z,14.71
2023-10-17T11:55:02.299Z,14.62
2023-10-17T11:58:38.577Z,14.14
2023-10-17T12:02:05.430Z,13.97
2023-10-17T12:05:31.578Z,14.26
2023-10-17T12:08:46.048Z,14.04
2023-10-17T12:12:04.739Z,14.38
2023-10-17T12:15:27.347Z,14.58
2023-10-17T12:18:42.222Z,14.61
2023-10-17T12:22:25.018Z,14.75
2023-10-17T12:25:49.220Z,14.94
2023-10-17T12:29:13.207Z,15.13
2023-10-17T12:32:53.985Z,14.99
2023-10-17T12:36:16.382Z,14.70
2023-10-17T12:39:36.522Z,14.80
2023-10-17T12:43:06.018Z,14.85
2023-10-17T12:46:37.710Z,15.67
2023-10-17T12:50:03.809Z,14.97
2023-10-17T12:53:21.317Z,14.68
2023-10-17T12:56:40.133Z,14.14
2023-10-17T12:59:54.799Z,14.22
2023-10-17T13:03:09.399Z,13.73
2023-10-17T13:06:34.076Z,14.14
2023-10-17T13:10:00.247Z,13.88
2023-10-17T13:13:17.947Z,13.84
2023-10-17T13:16:40.098Z,14.08
2023-10-17T13:19:59.087Z,14.29
2023-10-17T13:23:18.770Z,14.34
2023-10-17T13:26:38.778Z,13.90
2023-10-17T13:33:25.614Z,14.03
2023-10-17T13:37:07.978Z,13.83
2023-10-17T13:40:29.229Z,14.15
2023-10-17T13:44:17.409Z,14.30
2023-10-17T13:47:44.538Z,14.16
2023-10-17T13:51:17.718Z,14.07
2023-10-17T13:54:59.781Z,14.21
2023-10-17T13:58:17.938Z,14.18
2023-10-17T14:01:35.007Z,14.23
2023-10-17T14:04:50.277Z,14.10
2023-10-17T14:08:04.824Z,13.95
2023-10-17T14:11:20.603Z,13.89
2023-10-17T14:14:36.695Z,13.81
2023-10-17T14:17:54.974Z,13.47
2023-10-17T14:21:18.509Z,13.21
2023-10-17T14:24:51.325Z,13.21
2023-10-17T14:28:06.296Z,13.07
2023-10-17T14:31:22.686Z,13.08
2023-10-17T14:34:39.090Z,13.19
2023-10-17T14:37:53.438Z,12.72
2023-10-17T14:41:11.236Z,12.63
2023-10-17T14:44:25.752Z,12.63
2023-10-17T14:47:41.381Z,12.58
2023-10-17T14:50:56.298Z,12.45
2023-10-17T14:54:10.856Z,12.56
2023-10-17T14:57:27.561Z,12.40
2023-10-17T15:00:41.870Z,12.40
2023-10-17T15:03:57.546Z,12.23
2023-10-17T15:07:13.603Z,12.22
2023-10-17T15:10:28.145Z,12.24
2023-10-17T15:13:42.371Z,12.13
2023-10-17T15:16:56.594Z,12.13
2023-10-17T15:20:13.735Z,12.06
2023-10-17T15:23:27.964Z,12.05
2023-10-17T15:26:42.316Z,11.97
2023-10-17T15:29:56.580Z,11.91
